Aérodrome :
LOGIN :

S'inscrire | Disclaimer

   EN    FR    IT 

 










Légende :    VFR   VFR Marginal   IFR   IFR Intensif   IFR Très Intensif
Visi : 
Plafond : 
>= 8 km
>= 3000ft
5 à 8 km
1000 à 3000 ft
1500m à 5 km
500 à 1000 ft
800 à 1500m
200 à 500 ft
< 800m
< 200 ft
Symboles :   Orages  Brouillard  Fortes neiges  Fortes précipitations  Vent > 20 kt
SIGMETs :   Divers  Orages  Givrage  Turbulence  Onde Orograph.  Cendres Volcan.






- Altitude de l'aérodrome : 1470 ft
- Code IATA : KLU


LOWK - Klagenfurt

DERNIER METAR :
  • 080920Z VRB02KT CAVOK 12/M03 Q1031 NOSIG

METARs EXPIRÉS :
  • 080850Z VRB02KT CAVOK 11/M02 Q1031 NOSIG
  • 080820Z VRB02KT CAVOK 09/M03 Q1031 NOSIG
  • 080750Z VRB02KT CAVOK 08/M02 Q1032 NOSIG
  • 080720Z VRB01KT CAVOK 07/M03 Q1032 NOSIG
  • 080650Z VRB01KT CAVOK 06/M02 Q1032 NOSIG

TAF TAF LOWK
Valide du 08 à 06h jusqu'au 09 à 06h UTC


080515Z 0806/0906 10005KT CAVOK TX18/0815Z TN02/0905Z



MET'MAP, la Météo Aéronautique d'un coup d'oeil ! - Copyright ORBIFLY Décembre 2007 - Disclaimer

ORBIFLY MET'MAP TEAM :

Programmation & Développement : Alexandra Zaïnal
Sur une idée originale de : Baudouin d'Aumeries
Assistance à la programmation : Marc-Olivier Méhu
Soutien technique & logistique : Manuel Goepfert

Contact : metmap@orbifly.com




SOURCES & CREDITS :

   NOAA